Time;durP1;ratioP1;P1;durP2;ratioP2;P2;SDS_P1;SDS_P2;PMS_P1;PMS_P2;Temp;Humidity;BMP_temperature;BMP_pressure;BME280_temperature;BME280_humidity;BME280_pressure;Samples;Min_cycle;Max_cycle;Signal;HPM_P1;HPM_P2
2023/09/08 03:00:40;;;;;;;;;;;23.00;56.70;;;;;;5792374;23;46538;-86
2023/09/08 03:03:07;;;;;;;;;;;23.00;56.80;;;;;;4917713;28;45296;-83
2023/09/08 03:05:33;;;;;;;;;;;23.00;56.70;;;;;;4933000;28;45421;-79
2023/09/08 03:07:59;;;;;;;;;;;23.00;56.70;;;;;;4920872;28;45552;-80
2023/09/08 03:10:24;;;;;;;;;;;23.00;56.70;;;;;;4884005;28;46862;-79
2023/09/08 03:12:49;;;;;;;;;;;23.00;56.70;;;;;;4921629;28;45272;-85
2023/09/08 03:15:15;;;;;;;;;;;23.00;56.70;;;;;;4931881;28;45207;-83
2023/09/08 03:17:40;;;;;;;;;;;23.00;56.70;;;;;;4912538;28;45419;-79
2023/09/08 03:20:10;;;;;;;;;;;23.00;56.70;;;;;;4901307;28;46131;-87
2023/09/08 03:22:36;;;;;;;;;;;23.00;57.30;;;;;;4891390;28;44972;-83
2023/09/08 03:25:05;;;;;;;;;;;23.00;56.70;;;;;;4923634;28;45321;-79
2023/09/08 03:27:34;;;;;;;;;;;23.00;56.70;;;;;;4905235;28;45746;-79
2023/09/08 03:30:00;;;;;;;;;;;23.00;56.70;;;;;;4881267;28;47254;-81
2023/09/08 03:32:26;;;;;;;;;;;23.00;56.70;;;;;;4913658;28;45201;-80
2023/09/08 03:34:51;;;;;;;;;;;23.00;56.60;;;;;;4924189;28;45611;-80
2023/09/08 03:37:17;;;;;;;;;;;23.00;56.70;;;;;;4888504;28;44738;-83
2023/09/08 03:39:42;;;;;;;;;;;23.00;56.60;;;;;;4903250;28;45558;-79
2023/09/08 03:42:08;;;;;;;;;;;23.00;56.60;;;;;;4902449;28;46347;-80
2023/09/08 03:44:33;;;;;;;;;;;23.00;56.60;;;;;;4898931;28;45343;-79
2023/09/08 03:46:59;;;;;;;;;;;23.00;56.60;;;;;;4912109;28;45421;-79
2023/09/08 03:49:24;;;;;;;;;;;23.00;56.60;;;;;;4891374;28;47162;-82
2023/09/08 03:51:50;;;;;;;;;;;23.00;56.60;;;;;;4918501;28;45341;-79
2023/09/08 03:54:15;;;;;;;;;;;23.00;56.60;;;;;;4937550;28;44961;-81
2023/09/08 03:56:41;;;;;;;;;;;23.00;56.60;;;;;;4890919;28;45701;-81
2023/09/08 03:59:07;;;;;;;;;;;23.00;56.60;;;;;;4909143;28;45555;-83
2023/09/08 04:01:32;;;;;;;;;;;22.90;56.50;;;;;;4921057;28;44654;-80
2023/09/08 04:03:58;;;;;;;;;;;22.90;57.10;;;;;;4926882;28;45221;-83
2023/09/08 04:06:24;;;;;;;;;;;22.90;56.50;;;;;;4926454;28;45093;-83
2023/09/08 04:08:50;;;;;;;;;;;23.00;56.60;;;;;;4901499;28;46799;-80
2023/09/08 04:11:16;;;;;;;;;;;23.00;56.50;;;;;;4914788;28;45343;-82
2023/09/08 04:13:41;;;;;;;;;;;23.00;56.60;;;;;;4884853;28;45090;-80
2023/09/08 04:16:07;;;;;;;;;;;22.90;56.50;;;;;;4918874;28;45724;-79
2023/09/08 04:18:32;;;;;;;;;;;22.90;56.50;;;;;;4899991;28;46978;-80
2023/09/08 04:20:58;;;;;;;;;;;22.90;56.50;;;;;;4927242;28;45565;-81
2023/09/08 04:23:23;;;;;;;;;;;22.90;56.50;;;;;;4902259;28;45055;-80
2023/09/08 04:25:49;;;;;;;;;;;22.90;56.50;;;;;;4910152;28;45009;-82
2023/09/08 04:28:14;;;;;;;;;;;22.90;56.50;;;;;;4904054;28;46404;-82
2023/09/08 04:30:40;;;;;;;;;;;22.90;56.50;;;;;;4910949;28;45410;-85
2023/09/08 04:33:06;;;;;;;;;;;22.90;57.10;;;;;;4906716;28;44964;-83
2023/09/08 04:35:31;;;;;;;;;;;22.90;56.50;;;;;;4909892;28;45280;-80
2023/09/08 04:37:57;;;;;;;;;;;22.90;56.50;;;;;;4909070;28;45489;-83
2023/09/08 04:40:23;;;;;;;;;;;22.90;56.50;;;;;;4904560;28;45347;-83
2023/09/08 04:42:49;;;;;;;;;;;22.90;56.40;;;;;;4896670;28;45215;-88
2023/09/08 04:45:15;;;;;;;;;;;22.90;56.50;;;;;;4906392;28;44851;-81
2023/09/08 04:47:40;;;;;;;;;;;22.90;56.40;;;;;;4893521;28;46494;-81
2023/09/08 04:50:07;;;;;;;;;;;22.90;56.40;;;;;;4906200;28;45610;-87
2023/09/08 04:52:33;;;;;;;;;;;22.90;56.40;;;;;;4895282;28;45240;-80
2023/09/08 04:54:59;;;;;;;;;;;22.90;56.40;;;;;;4906887;28;44978;-81
2023/09/08 04:57:24;;;;;;;;;;;22.90;56.40;;;;;;4895081;28;46132;-86
2023/09/08 04:59:50;;;;;;;;;;;22.90;56.40;;;;;;4906994;28;44652;-84
2023/09/08 05:02:18;;;;;;;;;;;22.90;56.40;;;;;;4911585;28;45193;-84
2023/09/08 05:04:44;;;;;;;;;;;22.90;56.40;;;;;;4917236;28;45083;-82
2023/09/08 05:07:10;;;;;;;;;;;22.90;56.40;;;;;;4889089;28;46161;-85
2023/09/08 05:09:35;;;;;;;;;;;22.90;56.40;;;;;;4921307;28;45493;-84
2023/09/08 05:12:01;;;;;;;;;;;22.90;56.40;;;;;;4916097;28;45219;-81
2023/09/08 05:14:26;;;;;;;;;;;22.90;56.40;;;;;;4912840;28;45470;-84
2023/09/08 05:16:55;;;;;;;;;;;22.90;56.40;;;;;;4903332;28;46478;-82
2023/09/08 05:19:22;;;;;;;;;;;22.90;56.40;;;;;;4912924;28;45433;-80
2023/09/08 05:21:49;;;;;;;;;;;22.90;56.30;;;;;;4899860;28;45308;-84
2023/09/08 05:24:14;;;;;;;;;;;22.90;56.30;;;;;;4902952;28;44975;-85
2023/09/08 05:26:41;;;;;;;;;;;22.90;56.30;;;;;;4908800;28;45635;-85
2023/09/08 05:29:06;;;;;;;;;;;22.90;56.30;;;;;;4880556;28;45014;-83
2023/09/08 05:31:31;;;;;;;;;;;22.90;56.90;;;;;;4900040;28;45374;-80
2023/09/08 05:33:57;;;;;;;;;;;22.90;56.30;;;;;;4917402;28;45039;-82
2023/09/08 05:36:22;;;;;;;;;;;22.90;56.40;;;;;;4885720;28;46054;-80
2023/09/08 05:38:48;;;;;;;;;;;22.80;56.30;;;;;;4899670;28;45463;-81
2023/09/08 05:41:14;;;;;;;;;;;22.80;56.20;;;;;;4918067;28;45300;-80
2023/09/08 05:43:39;;;;;;;;;;;22.80;56.20;;;;;;4895777;28;45571;-82
2023/09/08 05:46:05;;;;;;;;;;;22.80;56.20;;;;;;4890628;28;47386;-83
2023/09/08 05:48:31;;;;;;;;;;;22.80;56.20;;;;;;4903668;28;45370;-81
2023/09/08 05:50:57;;;;;;;;;;;22.80;56.20;;;;;;4921598;28;45578;-82
2023/09/08 05:53:22;;;;;;;;;;;22.80;56.20;;;;;;4939987;28;46537;-81
2023/09/08 05:55:48;;;;;;;;;;;22.80;56.20;;;;;;4900955;28;46314;-80
2023/09/08 05:58:13;;;;;;;;;;;22.80;56.30;;;;;;4918248;28;45423;-79
2023/09/08 06:00:42;;;;;;;;;;;22.80;56.20;;;;;;4900367;28;45580;-85
2023/09/08 06:03:07;;;;;;;;;;;22.80;56.20;;;;;;4909423;28;45323;-81
2023/09/08 06:05:33;;;;;;;;;;;22.80;56.20;;;;;;4912161;28;45418;-80
2023/09/08 06:07:59;;;;;;;;;;;22.80;56.20;;;;;;4932230;28;45153;-83
2023/09/08 06:10:25;;;;;;;;;;;22.80;56.20;;;;;;4911018;28;45413;-80
2023/09/08 06:12:51;;;;;;;;;;;22.80;56.20;;;;;;4934459;28;46432;-82
2023/09/08 06:15:17;;;;;;;;;;;22.80;56.20;;;;;;4915825;28;45855;-80
2023/09/08 06:17:43;;;;;;;;;;;22.80;56.20;;;;;;4938074;28;45400;-80
2023/09/08 06:20:08;;;;;;;;;;;22.80;56.20;;;;;;4908109;28;45654;-87
2023/09/08 06:22:34;;;;;;;;;;;22.80;56.30;;;;;;4906758;28;46011;-83
2023/09/08 06:25:00;;;;;;;;;;;22.80;56.20;;;;;;4902658;28;46284;-83
2023/09/08 06:27:25;;;;;;;;;;;22.80;56.20;;;;;;4895046;28;45254;-81
2023/09/08 06:29:51;;;;;;;;;;;22.80;56.20;;;;;;4933982;28;45603;-81
2023/09/08 06:32:17;;;;;;;;;;;22.80;56.20;;;;;;4898369;28;45482;-80
2023/09/08 06:34:43;;;;;;;;;;;22.80;56.20;;;;;;4910159;28;46774;-81
2023/09/08 06:37:08;;;;;;;;;;;22.80;56.20;;;;;;4923603;28;45187;-81
2023/09/08 06:39:34;;;;;;;;;;;22.80;56.20;;;;;;4914032;28;45456;-81
2023/09/08 06:41:59;;;;;;;;;;;22.80;56.20;;;;;;4936694;28;45411;-80
2023/09/08 06:44:25;;;;;;;;;;;22.80;56.20;;;;;;4909944;28;45885;-81
2023/09/08 06:46:51;;;;;;;;;;;22.80;56.20;;;;;;4917782;28;45413;-82
2023/09/08 06:49:17;;;;;;;;;;;22.80;56.20;;;;;;4918869;28;44822;-80
2023/09/08 06:51:42;;;;;;;;;;;22.80;56.20;;;;;;4924595;28;45308;-80
2023/09/08 06:54:08;;;;;;;;;;;22.80;56.20;;;;;;4906941;28;45598;-81
2023/09/08 06:56:33;;;;;;;;;;;22.80;56.20;;;;;;4898882;28;45679;-81
2023/09/08 06:58:59;;;;;;;;;;;22.80;56.20;;;;;;4922396;28;45176;-81
2023/09/08 07:01:24;;;;;;;;;;;22.80;56.20;;;;;;4902044;28;45547;-81
2023/09/08 07:03:50;;;;;;;;;;;22.80;56.20;;;;;;4889502;28;46498;-79
2023/09/08 07:06:15;;;;;;;;;;;22.80;56.20;;;;;;4901958;28;45150;-80
2023/09/08 07:08:41;;;;;;;;;;;22.80;56.20;;;;;;4873347;28;45599;-81
2023/09/08 07:11:06;;;;;;;;;;;22.80;56.20;;;;;;4872132;28;44883;-80
2023/09/08 07:13:32;;;;;;;;;;;22.80;56.20;;;;;;4887799;28;46089;-80
2023/09/08 07:15:57;;;;;;;;;;;22.80;56.20;;;;;;4879850;28;45514;-81
2023/09/08 07:18:23;;;;;;;;;;;22.80;56.20;;;;;;4917310;28;45297;-81
2023/09/08 07:20:48;;;;;;;;;;;22.80;56.20;;;;;;4873709;28;45517;-81
2023/09/08 07:23:14;;;;;;;;;;;22.80;56.10;;;;;;4893023;28;46838;-84
2023/09/08 07:25:39;;;;;;;;;;;22.80;56.20;;;;;;4884952;28;45075;-85
2023/09/08 07:28:06;;;;;;;;;;;22.80;56.10;;;;;;4879496;28;45130;-80
2023/09/08 07:30:33;;;;;;;;;;;22.80;56.20;;;;;;4870271;28;45421;-80
2023/09/08 07:32:59;;;;;;;;;;;22.80;56.20;;;;;;4896875;28;46657;-82
2023/09/08 07:35:24;;;;;;;;;;;22.80;56.20;;;;;;4867091;28;45589;-82
2023/09/08 07:37:50;;;;;;;;;;;22.80;56.20;;;;;;4901935;28;45342;-80
2023/09/08 07:40:15;;;;;;;;;;;22.80;56.20;;;;;;4897349;28;45170;-83
2023/09/08 07:42:41;;;;;;;;;;;22.80;56.20;;;;;;4866325;29;47130;-81
2023/09/08 07:45:09;;;;;;;;;;;22.80;56.20;;;;;;4891633;28;45227;-86
2023/09/08 07:47:35;;;;;;;;;;;22.80;56.20;;;;;;4899662;28;45535;-80
2023/09/08 07:50:20;;;;;;;;;;;22.80;56.20;;;;;;4901033;28;45458;-81
2023/09/08 07:52:46;;;;;;;;;;;22.80;56.20;;;;;;4895243;28;46868;-80
2023/09/08 07:55:11;;;;;;;;;;;22.80;56.10;;;;;;4885112;28;45451;-79
2023/09/08 07:57:37;;;;;;;;;;;22.80;56.20;;;;;;4874684;28;45191;-81
2023/09/08 08:00:06;;;;;;;;;;;22.80;56.10;;;;;;4903975;28;45626;-82
2023/09/08 08:02:34;;;;;;;;;;;22.80;56.10;;;;;;4894867;23;45128;-45
2023/09/08 08:05:00;;;;;;;;;;;22.80;56.10;;;;;;4894050;28;45129;-46
2023/09/08 08:07:25;;;;;;;;;;;22.80;56.10;;;;;;4857691;28;45245;-45
2023/09/08 08:09:51;;;;;;;;;;;22.80;56.10;;;;;;4894669;28;45101;-45
2023/09/08 08:12:16;;;;;;;;;;;22.80;56.10;;;;;;4869420;28;46189;-45
2023/09/08 08:14:41;;;;;;;;;;;22.80;56.10;;;;;;4897917;28;44819;-44
2023/09/08 08:17:07;;;;;;;;;;;22.80;56.10;;;;;;4875295;28;45533;-46
2023/09/08 08:19:32;;;;;;;;;;;22.80;56.10;;;;;;4888958;28;45774;-45
2023/09/08 08:21:58;;;;;;;;;;;22.80;56.10;;;;;;4869488;28;46039;-45
2023/09/08 08:24:23;;;;;;;;;;;22.80;56.10;;;;;;4899478;28;45653;-45
2023/09/08 08:26:51;;;;;;;;;;;22.80;56.10;;;;;;4882646;28;45237;-45
2023/09/08 08:29:17;;;;;;;;;;;22.80;56.10;;;;;;4897612;28;45204;-45
2023/09/08 08:31:42;;;;;;;;;;;22.80;56.10;;;;;;4873194;28;44844;-45
2023/09/08 08:34:09;;;;;;;;;;;22.80;56.10;;;;;;4891498;28;45488;-46
2023/09/08 08:36:34;;;;;;;;;;;22.80;56.10;;;;;;4882030;28;44916;-45
2023/09/08 08:39:00;;;;;;;;;;;22.80;56.10;;;;;;4897551;28;44993;-45
2023/09/08 08:41:25;;;;;;;;;;;22.80;56.00;;;;;;4885126;28;44940;-44
2023/09/08 08:43:51;;;;;;;;;;;22.80;56.10;;;;;;4877902;28;44954;-46
2023/09/08 08:46:16;;;;;;;;;;;22.80;56.10;;;;;;4875441;28;44701;-47
2023/09/08 08:48:42;;;;;;;;;;;22.80;56.00;;;;;;4880833;29;45454;-46
2023/09/08 08:51:08;;;;;;;;;;;22.90;56.10;;;;;;4864078;28;45749;-44
2023/09/08 08:53:33;;;;;;;;;;;22.80;56.10;;;;;;4897644;28;45257;-45
2023/09/08 08:55:59;;;;;;;;;;;22.80;56.10;;;;;;4884626;28;45451;-46
2023/09/08 08:58:26;;;;;;;;;;;22.80;56.00;;;;;;4898008;28;45251;-44
2023/09/08 09:00:54;;;;;;;;;;;22.80;56.00;;;;;;4872854;28;45435;-46
2023/09/08 09:03:19;;;;;;;;;;;22.80;56.00;;;;;;4862800;28;45681;-45
2023/09/08 09:05:45;;;;;;;;;;;22.90;56.10;;;;;;4839961;28;45267;-45
2023/09/08 09:08:10;;;;;;;;;;;22.80;56.00;;;;;;4888630;28;45862;-46
2023/09/08 09:10:36;;;;;;;;;;;22.80;56.00;;;;;;4883826;28;45517;-45
2023/09/08 09:13:02;;;;;;;;;;;22.80;56.00;;;;;;4893151;28;47294;-45
2023/09/08 09:15:28;;;;;;;;;;;22.80;56.00;;;;;;4880802;28;45376;-46
2023/09/08 09:18:04;;;;;;;;;;;22.80;56.00;;;;;;4893374;28;45355;-46
2023/09/08 09:20:29;;;;;;;;;;;22.90;56.10;;;;;;4885836;28;45175;-45
2023/09/08 09:22:55;;;;;;;;;;;22.90;56.10;;;;;;4893723;28;45231;-45
2023/09/08 09:25:24;;;;;;;;;;;22.90;56.10;;;;;;4871742;28;45525;-45
2023/09/08 09:27:53;;;;;;;;;;;22.90;56.10;;;;;;4897854;28;47492;-48
2023/09/08 09:30:19;;;;;;;;;;;22.90;56.20;;;;;;4869908;28;46339;-47
2023/09/08 09:32:44;;;;;;;;;;;22.90;56.10;;;;;;4859607;28;45667;-45
2023/09/08 09:35:10;;;;;;;;;;;22.90;56.10;;;;;;4891355;28;45304;-45
2023/09/08 09:37:35;;;;;;;;;;;22.90;56.10;;;;;;4872625;28;45331;-45
2023/09/08 09:40:01;;;;;;;;;;;22.90;56.10;;;;;;4897634;28;46147;-45
2023/09/08 09:42:32;;;;;;;;;;;22.90;56.10;;;;;;4878869;28;45427;-46
2023/09/08 09:44:57;;;;;;;;;;;22.90;56.10;;;;;;4900562;28;45461;-45
2023/09/08 09:47:23;;;;;;;;;;;22.90;56.10;;;;;;4857439;28;45681;-45
2023/09/08 09:49:48;;;;;;;;;;;22.90;56.10;;;;;;4880030;28;45220;-44
2023/09/08 09:52:14;;;;;;;;;;;22.90;56.10;;;;;;4883540;28;45201;-44
2023/09/08 09:54:41;;;;;;;;;;;22.90;56.10;;;;;;4897650;28;45593;-44
2023/09/08 09:57:06;;;;;;;;;;;22.90;56.10;;;;;;4886582;28;45666;-45
2023/09/08 09:59:31;;;;;;;;;;;22.90;56.10;;;;;;4886718;28;45253;-45
2023/09/08 10:01:57;;;;;;;;;;;22.90;56.10;;;;;;4852918;28;45407;-44
2023/09/08 10:04:22;;;;;;;;;;;22.90;56.10;;;;;;4891263;28;45392;-45
2023/09/08 10:06:48;;;;;;;;;;;22.90;56.10;;;;;;4891226;28;45689;-45
2023/09/08 10:09:16;;;;;;;;;;;22.90;56.10;;;;;;4895206;28;46122;-45
2023/09/08 10:11:45;;;;;;;;;;;22.90;56.10;;;;;;4885553;28;45136;-44
2023/09/08 10:14:11;;;;;;;;;;;22.90;56.10;;;;;;4848628;28;46707;-45
2023/09/08 10:16:38;;;;;;;;;;;22.90;56.10;;;;;;4873595;28;45142;-46
2023/09/08 10:19:04;;;;;;;;;;;22.90;56.20;;;;;;4886446;28;46082;-44
2023/09/08 10:21:30;;;;;;;;;;;22.90;56.20;;;;;;4873799;28;45254;-45
2023/09/08 10:23:57;;;;;;;;;;;22.90;56.20;;;;;;4886226;28;44935;-45
2023/09/08 10:26:24;;;;;;;;;;;22.90;56.20;;;;;;4857714;28;45388;-43
2023/09/08 10:28:51;;;;;;;;;;;22.90;56.10;;;;;;4895346;28;45304;-44
2023/09/08 10:31:16;;;;;;;;;;;22.90;56.20;;;;;;4872950;28;45724;-44
2023/09/08 10:33:42;;;;;;;;;;;22.90;56.20;;;;;;4879145;28;45152;-44
2023/09/08 10:36:07;;;;;;;;;;;22.90;56.10;;;;;;4875665;28;45376;-44
2023/09/08 10:38:33;;;;;;;;;;;22.90;56.10;;;;;;4897983;28;46935;-45
2023/09/08 10:41:14;;;;;;;;;;;23.00;56.20;;;;;;4889354;28;45984;-45
2023/09/08 10:43:40;;;;;;;;;;;23.00;56.20;;;;;;4894994;28;45261;-44
2023/09/08 10:46:09;;;;;;;;;;;23.00;56.20;;;;;;4883352;28;45374;-43
2023/09/08 10:48:44;;;;;;;;;;;23.00;56.20;;;;;;4898144;28;45290;-44
2023/09/08 10:51:13;;;;;;;;;;;23.00;56.20;;;;;;4879926;28;45402;-44
2023/09/08 10:53:39;;;;;;;;;;;23.00;56.20;;;;;;4903364;28;45206;-44
2023/09/08 10:56:04;;;;;;;;;;;23.00;56.20;;;;;;4893085;28;45235;-46
2023/09/08 10:58:32;;;;;;;;;;;23.00;56.20;;;;;;4904190;28;45307;-44
2023/09/08 11:01:00;;;;;;;;;;;23.00;56.20;;;;;;4878418;28;45299;-44
2023/09/08 11:03:37;;;;;;;;;;;23.00;56.20;;;;;;4898308;28;45599;-44
2023/09/08 11:06:03;;;;;;;;;;;23.00;56.20;;;;;;4891425;28;45593;-44
2023/09/08 11:08:29;;;;;;;;;;;23.00;56.80;;;;;;4901452;28;45190;-45
2023/09/08 11:10:55;;;;;;;;;;;23.00;56.20;;;;;;4892227;28;45539;-45
2023/09/08 11:13:20;;;;;;;;;;;23.00;56.30;;;;;;4896104;28;46282;-45
2023/09/08 11:15:46;;;;;;;;;;;23.00;56.20;;;;;;4884006;28;45528;-45
2023/09/08 11:18:11;;;;;;;;;;;23.00;56.20;;;;;;4860337;28;45801;-44
2023/09/08 11:20:37;;;;;;;;;;;23.00;56.20;;;;;;4903838;23;45355;-44
2023/09/08 11:23:04;;;;;;;;;;;23.00;56.20;;;;;;4897408;28;44836;-45
2023/09/08 11:25:34;;;;;;;;;;;23.00;56.30;;;;;;4888327;28;45837;-44
2023/09/08 11:28:00;;;;;;;;;;;23.00;56.30;;;;;;4899240;28;45553;-45
2023/09/08 11:30:26;;;;;;;;;;;23.00;56.20;;;;;;4868362;28;45021;-46
2023/09/08 11:32:52;;;;;;;;;;;23.00;56.30;;;;;;4876424;28;45288;-45
2023/09/08 11:35:20;;;;;;;;;;;23.00;56.30;;;;;;4889553;28;45255;-46
2023/09/08 11:37:46;;;;;;;;;;;23.00;56.30;;;;;;4903597;28;45368;-44
2023/09/08 11:40:12;;;;;;;;;;;23.00;56.30;;;;;;4866172;28;45816;-45
2023/09/08 11:42:40;;;;;;;;;;;23.00;56.30;;;;;;4894547;28;45946;-44
2023/09/08 11:45:07;;;;;;;;;;;23.00;56.30;;;;;;4882468;28;44983;-45
2023/09/08 11:47:33;;;;;;;;;;;23.00;56.30;;;;;;4867307;28;45538;-44
2023/09/08 11:49:58;;;;;;;;;;;23.00;56.30;;;;;;4890356;28;45316;-44
2023/09/08 11:52:24;;;;;;;;;;;23.00;56.30;;;;;;4878042;28;45818;-45
2023/09/08 11:54:50;;;;;;;;;;;23.00;56.30;;;;;;4898808;28;45438;-43
2023/09/08 11:57:16;;;;;;;;;;;23.00;56.30;;;;;;4874184;28;45498;-44
2023/09/08 11:59:41;;;;;;;;;;;23.00;56.30;;;;;;4884507;28;45394;-45
2023/09/08 12:02:07;;;;;;;;;;;23.00;56.30;;;;;;4866712;28;45545;-45
2023/09/08 12:04:34;;;;;;;;;;;23.00;56.30;;;;;;4903199;28;44945;-43
2023/09/08 12:07:00;;;;;;;;;;;23.00;56.30;;;;;;4878751;28;47382;-44
2023/09/08 12:09:25;;;;;;;;;;;23.00;56.30;;;;;;4882938;28;45361;-45
2023/09/08 12:11:51;;;;;;;;;;;23.00;56.30;;;;;;4868060;28;45366;-43
2023/09/08 12:14:16;;;;;;;;;;;23.00;56.30;;;;;;4888334;28;45437;-45
2023/09/08 12:16:42;;;;;;;;;;;23.00;56.30;;;;;;4887995;28;46180;-44
2023/09/08 12:19:08;;;;;;;;;;;23.00;56.30;;;;;;4898972;28;45263;-45
2023/09/08 12:21:35;;;;;;;;;;;23.00;56.30;;;;;;4877084;28;45348;-44
2023/09/08 12:24:00;;;;;;;;;;;23.00;56.40;;;;;;4896210;28;45381;-44
2023/09/08 12:26:26;;;;;;;;;;;23.00;56.30;;;;;;4885285;28;45348;-44
2023/09/08 12:28:51;;;;;;;;;;;23.00;56.30;;;;;;4897862;28;45184;-45
2023/09/08 12:31:17;;;;;;;;;;;23.00;56.40;;;;;;4872536;28;45334;-44
2023/09/08 12:33:43;;;;;;;;;;;23.00;56.30;;;;;;4888490;28;45339;-45
2023/09/08 12:36:12;;;;;;;;;;;23.00;56.30;;;;;;4885022;28;45764;-44
2023/09/08 12:38:38;;;;;;;;;;;23.00;56.40;;;;;;4883850;28;44971;-44
2023/09/08 12:41:04;;;;;;;;;;;23.00;56.40;;;;;;4881635;28;45367;-44
2023/09/08 12:43:29;;;;;;;;;;;23.00;56.40;;;;;;4881270;28;46528;-44
2023/09/08 12:45:56;;;;;;;;;;;23.00;56.40;;;;;;4875872;28;46117;-44
2023/09/08 12:48:21;;;;;;;;;;;23.00;56.40;;;;;;4887383;28;45322;-44
2023/09/08 12:50:48;;;;;;;;;;;23.00;56.40;;;;;;4883891;28;45456;-44
2023/09/08 12:53:13;;;;;;;;;;;23.00;56.40;;;;;;4877849;28;44783;-45
2023/09/08 12:55:38;;;;;;;;;;;23.00;56.40;;;;;;4881519;28;46331;-46
2023/09/08 12:58:04;;;;;;;;;;;23.10;56.50;;;;;;4880766;28;45144;-46
2023/09/08 13:00:29;;;;;;;;;;;23.00;56.40;;;;;;4873626;28;46134;-45
2023/09/08 13:02:55;;;;;;;;;;;23.00;56.40;;;;;;4890407;28;45540;-45
2023/09/08 13:05:21;;;;;;;;;;;23.10;56.50;;;;;;4871300;28;45309;-45
2023/09/08 13:07:46;;;;;;;;;;;23.00;56.40;;;;;;4883431;28;45371;-44
2023/09/08 13:10:12;;;;;;;;;;;23.00;56.40;;;;;;4880096;28;45566;-45
2023/09/08 13:12:37;;;;;;;;;;;23.00;56.40;;;;;;4871121;28;45335;-45
2023/09/08 13:15:07;;;;;;;;;;;23.00;56.40;;;;;;4890839;28;45498;-45
2023/09/08 13:17:32;;;;;;;;;;;23.00;56.50;;;;;;4864662;28;45315;-44
2023/09/08 13:19:58;;;;;;;;;;;23.10;56.50;;;;;;4842411;28;1176935;-44
2023/09/08 13:22:23;;;;;;;;;;;23.00;56.50;;;;;;4869198;28;45499;-45
2023/09/08 13:24:49;;;;;;;;;;;23.00;56.50;;;;;;4880541;28;45944;-45
2023/09/08 13:27:17;;;;;;;;;;;23.00;56.50;;;;;;4866113;28;46017;-45
2023/09/08 13:29:42;;;;;;;;;;;23.00;56.50;;;;;;4889218;28;45204;-44
2023/09/08 13:32:08;;;;;;;;;;;23.00;56.50;;;;;;4863812;28;45383;-47
2023/09/08 13:34:33;;;;;;;;;;;23.00;56.50;;;;;;4866549;28;46239;-44
2023/09/08 13:37:00;;;;;;;;;;;23.00;56.50;;;;;;4872425;28;45088;-45
2023/09/08 13:39:26;;;;;;;;;;;23.10;56.60;;;;;;4881784;28;45358;-45
2023/09/08 13:41:52;;;;;;;;;;;23.10;56.50;;;;;;4872514;28;46553;-43
2023/09/08 13:44:18;;;;;;;;;;;23.10;56.60;;;;;;4879755;28;46475;-45
2023/09/08 13:46:43;;;;;;;;;;;23.00;56.50;;;;;;4848026;28;45321;-44
2023/09/08 13:49:09;;;;;;;;;;;23.00;56.50;;;;;;4879802;28;45345;-44
2023/09/08 13:51:34;;;;;;;;;;;23.00;56.50;;;;;;4868687;28;47250;-45
2023/09/08 13:54:01;;;;;;;;;;;23.00;56.50;;;;;;4870613;28;45585;-45
2023/09/08 13:56:26;;;;;;;;;;;23.00;56.60;;;;;;4857986;28;46000;-45
2023/09/08 13:58:52;;;;;;;;;;;23.00;56.50;;;;;;4887960;28;45306;-44
2023/09/08 14:01:18;;;;;;;;;;;23.00;56.50;;;;;;4869869;28;45586;-44
2023/09/08 14:03:43;;;;;;;;;;;23.00;56.60;;;;;;4871199;28;46642;-44
2023/09/08 14:06:09;;;;;;;;;;;23.10;56.60;;;;;;4873437;28;47034;-44
2023/09/08 14:08:34;;;;;;;;;;;23.00;56.50;;;;;;4890923;28;46062;-44
2023/09/08 14:11:00;;;;;;;;;;;23.00;56.50;;;;;;4869494;28;45407;-44
2023/09/08 14:13:25;;;;;;;;;;;23.00;56.50;;;;;;4888331;28;45135;-44
2023/09/08 14:15:51;;;;;;;;;;;23.00;56.60;;;;;;4878771;28;45536;-44
2023/09/08 14:18:16;;;;;;;;;;;23.00;56.60;;;;;;4887839;28;46737;-45
2023/09/08 14:20:42;;;;;;;;;;;23.00;56.60;;;;;;4875169;28;45918;-45
2023/09/08 14:23:08;;;;;;;;;;;23.00;56.60;;;;;;4895450;28;45507;-45
2023/09/08 14:25:34;;;;;;;;;;;23.00;56.60;;;;;;4884887;28;45718;-44
2023/09/08 14:27:59;;;;;;;;;;;23.00;56.60;;;;;;4878876;28;45708;-44
2023/09/08 14:30:25;;;;;;;;;;;23.00;56.60;;;;;;4876866;28;45374;-43
2023/09/08 14:32:50;;;;;;;;;;;23.00;56.60;;;;;;4888685;28;45326;-44
2023/09/08 14:35:16;;;;;;;;;;;23.00;56.60;;;;;;4872731;28;45291;-44
2023/09/08 14:37:41;;;;;;;;;;;23.00;56.60;;;;;;4889157;28;45320;-44
2023/09/08 14:40:07;;;;;;;;;;;23.00;56.60;;;;;;4883695;28;45777;-46
2023/09/08 14:42:33;;;;;;;;;;;23.10;56.70;;;;;;4878708;28;45206;-44
2023/09/08 14:44:58;;;;;;;;;;;23.00;56.60;;;;;;4887346;28;45389;-45
2023/09/08 14:47:23;;;;;;;;;;;23.00;56.60;;;;;;4861216;28;45991;-45
2023/09/08 14:49:49;;;;;;;;;;;23.00;56.60;;;;;;4871982;28;45556;-44
2023/09/08 14:52:16;;;;;;;;;;;23.10;56.70;;;;;;4879430;28;45496;-45
2023/09/08 14:54:41;;;;;;;;;;;23.00;56.70;;;;;;4894494;28;45284;-45
2023/09/08 14:57:07;;;;;;;;;;;23.00;56.60;;;;;;4885563;28;45251;-45
2023/09/08 14:59:32;;;;;;;;;;;23.10;56.70;;;;;;4888429;28;45799;-43
2023/09/08 15:01:58;;;;;;;;;;;23.00;56.60;;;;;;4868501;28;45449;-45
2023/09/08 15:04:23;;;;;;;;;;;23.00;56.60;;;;;;4881074;28;45038;-46
2023/09/08 15:06:49;;;;;;;;;;;23.10;56.70;;;;;;4868124;28;44931;-43
2023/09/08 15:09:15;;;;;;;;;;;23.10;56.70;;;;;;4886574;28;45378;-45
2023/09/08 15:11:40;;;;;;;;;;;23.00;56.60;;;;;;4879636;28;45416;-44
2023/09/08 15:14:06;;;;;;;;;;;23.10;56.70;;;;;;4889847;28;45218;-44
2023/09/08 15:16:31;;;;;;;;;;;23.10;56.70;;;;;;4869916;28;45719;-45
2023/09/08 15:18:57;;;;;;;;;;;23.10;56.70;;;;;;4889765;28;45200;-44
2023/09/08 15:21:27;;;;;;;;;;;23.10;56.70;;;;;;4882235;28;45274;-48
2023/09/08 15:23:52;;;;;;;;;;;23.10;56.70;;;;;;4876991;28;45686;-44
2023/09/08 15:26:18;;;;;;;;;;;23.10;56.70;;;;;;4883217;28;45299;-44
2023/09/08 15:28:43;;;;;;;;;;;23.10;56.70;;;;;;4870494;28;45714;-43
2023/09/08 15:31:10;;;;;;;;;;;23.10;56.80;;;;;;4877247;28;45420;-45
2023/09/08 15:33:38;;;;;;;;;;;23.10;56.70;;;;;;4876567;28;46155;-45
2023/09/08 15:36:04;;;;;;;;;;;23.00;56.70;;;;;;4884875;28;45334;-44
2023/09/08 15:38:29;;;;;;;;;;;23.10;56.70;;;;;;4875898;28;45350;-43
2023/09/08 15:41:07;;;;;;;;;;;23.10;56.70;;;;;;4880063;28;45450;-44
2023/09/08 15:43:35;;;;;;;;;;;23.10;56.70;;;;;;4861853;28;48186;-44
2023/09/08 15:46:01;;;;;;;;;;;23.10;56.80;;;;;;4864549;28;45320;-44
2023/09/08 15:48:26;;;;;;;;;;;23.00;56.70;;;;;;4883441;28;45378;-44
2023/09/08 15:50:52;;;;;;;;;;;23.10;56.80;;;;;;4872147;28;45318;-44
2023/09/08 15:53:17;;;;;;;;;;;23.00;56.70;;;;;;4882691;28;45211;-45
2023/09/08 15:55:43;;;;;;;;;;;23.10;56.70;;;;;;4865438;28;46080;-43
2023/09/08 15:58:08;;;;;;;;;;;23.10;56.70;;;;;;4897535;28;45216;-44
2023/09/08 16:00:34;;;;;;;;;;;23.10;56.70;;;;;;4855829;28;46104;-44
2023/09/08 16:02:59;;;;;;;;;;;23.10;56.70;;;;;;4888829;28;45606;-43
2023/09/08 16:05:25;;;;;;;;;;;23.10;56.80;;;;;;4865472;28;45846;-44
2023/09/08 16:07:50;;;;;;;;;;;23.10;56.70;;;;;;4876056;28;45211;-44
2023/09/08 16:10:16;;;;;;;;;;;23.10;56.70;;;;;;4878112;28;46237;-48
2023/09/08 16:12:41;;;;;;;;;;;23.10;56.70;;;;;;4884635;28;45310;-44
2023/09/08 16:15:07;;;;;;;;;;;23.10;57.30;;;;;;4876025;28;45247;-45
2023/09/08 16:17:33;;;;;;;;;;;23.10;56.70;;;;;;4877187;28;45423;-43
2023/09/08 16:19:59;;;;;;;;;;;23.10;56.70;;;;;;4891618;28;45471;-42
2023/09/08 16:22:24;;;;;;;;;;;23.10;56.80;;;;;;4860676;28;45589;-45
2023/09/08 16:24:50;;;;;;;;;;;23.10;56.70;;;;;;4884249;28;45390;-42
2023/09/08 16:27:15;;;;;;;;;;;23.10;56.70;;;;;;4874649;28;45539;-44
2023/09/08 16:29:41;;;;;;;;;;;23.10;56.80;;;;;;4879617;28;44934;-44
2023/09/08 16:32:09;;;;;;;;;;;23.10;56.80;;;;;;4856938;28;45344;-43
2023/09/08 16:34:35;;;;;;;;;;;23.10;56.70;;;;;;4855141;28;45851;-42
2023/09/08 16:37:00;;;;;;;;;;;23.10;56.80;;;;;;4839701;28;44672;-43
2023/09/08 16:39:26;;;;;;;;;;;23.10;56.70;;;;;;4878316;28;45195;-45
2023/09/08 16:41:51;;;;;;;;;;;23.10;56.80;;;;;;4864139;28;45211;-45
2023/09/08 16:44:17;;;;;;;;;;;23.10;56.70;;;;;;4880680;28;45936;-44
2023/09/08 16:46:42;;;;;;;;;;;23.10;56.80;;;;;;4855452;28;45174;-44
2023/09/08 16:49:08;;;;;;;;;;;23.10;56.70;;;;;;4880469;28;45925;-43
2023/09/08 16:51:33;;;;;;;;;;;23.10;56.70;;;;;;4864136;28;45373;-46
2023/09/08 16:53:59;;;;;;;;;;;23.10;56.80;;;;;;4840610;28;44831;-43
2023/09/08 16:56:24;;;;;;;;;;;23.10;57.10;;;;;;4873486;28;45328;-45
2023/09/08 16:58:50;;;;;;;;;;;23.20;56.80;;;;;;4886430;28;45139;-44
2023/09/08 17:01:15;;;;;;;;;;;23.20;56.80;;;;;;4863376;28;45837;-43
2023/09/08 17:03:41;;;;;;;;;;;23.20;56.90;;;;;;4886697;28;45183;-43
2023/09/08 17:06:06;;;;;;;;;;;23.20;56.80;;;;;;4880779;28;47167;-44
2023/09/08 17:08:32;;;;;;;;;;;23.10;56.70;;;;;;4887854;28;45240;-45